sensor_id;sensor_type;location;lat;lon;timestamp;pressure;altitude;pressure_sealevel;temperature;humidity
55538;BME280;41383;51.418;7.286;2023-05-20T00:00:21;100563.38;;;13.69;60.07
55538;BME280;41383;51.418;7.286;2023-05-20T00:02:46;100562.25;;;13.64;60.33
55538;BME280;41383;51.418;7.286;2023-05-20T00:05:12;100569.38;;;13.65;60.13
55538;BME280;41383;51.418;7.286;2023-05-20T00:07:37;100556.44;;;13.61;60.46
55538;BME280;41383;51.418;7.286;2023-05-20T00:10:02;100561.94;;;13.61;60.18
55538;BME280;41383;51.418;7.286;2023-05-20T00:12:28;100556.78;;;13.64;59.75
55538;BME280;41383;51.418;7.286;2023-05-20T00:14:53;100558.91;;;13.57;60.36
55538;BME280;41383;51.418;7.286;2023-05-20T00:17:18;100560.50;;;13.53;61.04
55538;BME280;41383;51.418;7.286;2023-05-20T00:19:43;100557.19;;;13.51;61.29
55538;BME280;41383;51.418;7.286;2023-05-20T00:22:09;100556.63;;;13.43;60.92
55538;BME280;41383;51.418;7.286;2023-05-20T00:24:34;100565.91;;;13.42;61.64
55538;BME280;41383;51.418;7.286;2023-05-20T00:26:59;100563.72;;;13.45;61.22
55538;BME280;41383;51.418;7.286;2023-05-20T00:29:26;100559.63;;;13.42;60.77
55538;BME280;41383;51.418;7.286;2023-05-20T00:31:52;100559.34;;;13.43;60.73
55538;BME280;41383;51.418;7.286;2023-05-20T00:34:19;100553.97;;;13.54;60.72
55538;BME280;41383;51.418;7.286;2023-05-20T00:36:44;100560.56;;;13.58;60.40
55538;BME280;41383;51.418;7.286;2023-05-20T00:39:10;100562.25;;;13.64;60.78
55538;BME280;41383;51.418;7.286;2023-05-20T00:41:35;100561.69;;;13.68;60.63
55538;BME280;41383;51.418;7.286;2023-05-20T00:44:00;100551.84;;;13.67;60.53
55538;BME280;41383;51.418;7.286;2023-05-20T00:46:27;100555.94;;;13.64;60.83
55538;BME280;41383;51.418;7.286;2023-05-20T00:48:53;100558.13;;;13.62;60.73
55538;BME280;41383;51.418;7.286;2023-05-20T00:51:18;100566.91;;;13.64;60.73
55538;BME280;41383;51.418;7.286;2023-05-20T00:53:44;100566.06;;;13.63;60.86
55538;BME280;41383;51.418;7.286;2023-05-20T00:56:09;100563.03;;;13.60;60.90
55538;BME280;41383;51.418;7.286;2023-05-20T00:58:35;100563.31;;;13.58;60.80
55538;BME280;41383;51.418;7.286;2023-05-20T01:01:02;100554.81;;;13.54;60.84
55538;BME280;41383;51.418;7.286;2023-05-20T01:03:28;100549.53;;;13.53;60.66
55538;BME280;41383;51.418;7.286;2023-05-20T01:05:53;100543.78;;;13.49;61.22
55538;BME280;41383;51.418;7.286;2023-05-20T01:08:20;100547.94;;;13.57;61.05
55538;BME280;41383;51.418;7.286;2023-05-20T01:10:49;100552.34;;;13.58;60.99
55538;BME280;41383;51.418;7.286;2023-05-20T01:13:19;100539.78;;;13.68;60.44
55538;BME280;41383;51.418;7.286;2023-05-20T01:15:46;100541.19;;;13.70;60.48
55538;BME280;41383;51.418;7.286;2023-05-20T01:18:13;100545.31;;;13.73;60.39
55538;BME280;41383;51.418;7.286;2023-05-20T01:20:46;100541.47;;;13.74;59.84
55538;BME280;41383;51.418;7.286;2023-05-20T01:23:13;100535.97;;;13.74;59.99
55538;BME280;41383;51.418;7.286;2023-05-20T01:25:39;100538.72;;;13.74;60.09
55538;BME280;41383;51.418;7.286;2023-05-20T01:28:06;100533.50;;;13.72;60.13
55538;BME280;41383;51.418;7.286;2023-05-20T01:30:34;100537.63;;;13.75;60.16
55538;BME280;41383;51.418;7.286;2023-05-20T01:33:09;100539.84;;;13.78;59.93
55538;BME280;41383;51.418;7.286;2023-05-20T01:35:36;100539.56;;;13.80;59.53
55538;BME280;41383;51.418;7.286;2023-05-20T01:38:04;100539.59;;;13.85;59.38
55538;BME280;41383;51.418;7.286;2023-05-20T01:40:31;100532.19;;;13.85;59.45
55538;BME280;41383;51.418;7.286;2023-05-20T01:42:58;100534.13;;;13.95;58.83
55538;BME280;41383;51.418;7.286;2023-05-20T01:45:24;100524.28;;;13.99;58.34
55538;BME280;41383;51.418;7.286;2023-05-20T01:47:50;100522.03;;;13.86;59.20
55538;BME280;41383;51.418;7.286;2023-05-20T01:50:15;100513.03;;;13.96;58.60
55538;BME280;41383;51.418;7.286;2023-05-20T01:52:40;100507.22;;;13.82;59.13
55538;BME280;41383;51.418;7.286;2023-05-20T01:55:06;100509.22;;;13.97;58.45
55538;BME280;41383;51.418;7.286;2023-05-20T01:57:31;100519.06;;;13.93;58.92
55538;BME280;41383;51.418;7.286;2023-05-20T01:59:57;100517.91;;;13.73;59.60
55538;BME280;41383;51.418;7.286;2023-05-20T02:02:25;100517.63;;;13.80;59.25
55538;BME280;41383;51.418;7.286;2023-05-20T02:04:52;100519.22;;;13.65;59.52
55538;BME280;41383;51.418;7.286;2023-05-20T02:07:18;100516.66;;;13.48;60.19
55538;BME280;41383;51.418;7.286;2023-05-20T02:09:44;100518.84;;;13.51;60.14
55538;BME280;41383;51.418;7.286;2023-05-20T02:12:09;100513.94;;;13.53;60.29
55538;BME280;41383;51.418;7.286;2023-05-20T02:14:40;100507.88;;;13.51;60.40
55538;BME280;41383;51.418;7.286;2023-05-20T02:17:05;100515.50;;;13.38;60.77
55538;BME280;41383;51.418;7.286;2023-05-20T02:19:31;100514.41;;;13.39;60.63
55538;BME280;41383;51.418;7.286;2023-05-20T02:21:56;100521.25;;;13.37;60.51
55538;BME280;41383;51.418;7.286;2023-05-20T02:24:21;100515.81;;;13.42;60.17
55538;BME280;41383;51.418;7.286;2023-05-20T02:26:46;100513.88;;;13.42;60.40
55538;BME280;41383;51.418;7.286;2023-05-20T02:29:15;100521.84;;;13.49;59.63
55538;BME280;41383;51.418;7.286;2023-05-20T02:31:40;100521.50;;;13.35;60.25
55538;BME280;41383;51.418;7.286;2023-05-20T02:34:05;100521.44;;;13.25;60.52
55538;BME280;41383;51.418;7.286;2023-05-20T02:36:31;100525.78;;;13.15;61.09
55538;BME280;41383;51.418;7.286;2023-05-20T02:38:56;100521.13;;;13.16;61.15
55538;BME280;41383;51.418;7.286;2023-05-20T02:41:21;100530.72;;;13.18;61.18
55538;BME280;41383;51.418;7.286;2023-05-20T02:43:47;100527.41;;;13.16;60.94
55538;BME280;41383;51.418;7.286;2023-05-20T02:46:12;100529.28;;;13.11;61.43
55538;BME280;41383;51.418;7.286;2023-05-20T02:48:37;100527.59;;;13.04;61.85
55538;BME280;41383;51.418;7.286;2023-05-20T02:51:03;100533.38;;;13.08;61.75
55538;BME280;41383;51.418;7.286;2023-05-20T02:53:28;100526.53;;;13.05;61.37
55538;BME280;41383;51.418;7.286;2023-05-20T02:55:53;100526.34;;;13.17;61.06
55538;BME280;41383;51.418;7.286;2023-05-20T02:58:18;100522.53;;;13.24;60.73
55538;BME280;41383;51.418;7.286;2023-05-20T03:00:51;100512.09;;;13.15;60.87
55538;BME280;41383;51.418;7.286;2023-05-20T03:03:16;100517.00;;;13.13;61.49
55538;BME280;41383;51.418;7.286;2023-05-20T03:05:41;100513.41;;;13.07;61.48
55538;BME280;41383;51.418;7.286;2023-05-20T03:08:10;100516.22;;;13.18;61.58
55538;BME280;41383;51.418;7.286;2023-05-20T03:10:36;100529.16;;;13.28;60.83
55538;BME280;41383;51.418;7.286;2023-05-20T03:13:03;100519.81;;;13.29;60.53
55538;BME280;41383;51.418;7.286;2023-05-20T03:15:29;100509.44;;;13.31;60.56
55538;BME280;41383;51.418;7.286;2023-05-20T03:17:54;100514.63;;;13.33;60.63
55538;BME280;41383;51.418;7.286;2023-05-20T03:20:20;100519.25;;;13.27;60.41
55538;BME280;41383;51.418;7.286;2023-05-20T03:22:45;100513.22;;;13.25;60.58
55538;BME280;41383;51.418;7.286;2023-05-20T03:25:10;100510.41;;;13.14;61.13
55538;BME280;41383;51.418;7.286;2023-05-20T03:27:36;100516.44;;;13.11;61.53
55538;BME280;41383;51.418;7.286;2023-05-20T03:30:02;100509.91;;;13.17;60.53
55538;BME280;41383;51.418;7.286;2023-05-20T03:32:29;100506.63;;;13.21;60.47
55538;BME280;41383;51.418;7.286;2023-05-20T03:34:54;100506.56;;;13.10;61.30
55538;BME280;41383;51.418;7.286;2023-05-20T03:37:22;100502.69;;;13.06;61.32
55538;BME280;41383;51.418;7.286;2023-05-20T03:39:47;100503.34;;;13.18;60.49
55538;BME280;41383;51.418;7.286;2023-05-20T03:42:12;100508.84;;;13.24;60.30
55538;BME280;41383;51.418;7.286;2023-05-20T03:44:37;100505.50;;;13.11;60.86
55538;BME280;41383;51.418;7.286;2023-05-20T03:47:03;100511.47;;;13.08;61.08
55538;BME280;41383;51.418;7.286;2023-05-20T03:49:28;100508.72;;;13.08;61.52
55538;BME280;41383;51.418;7.286;2023-05-20T03:51:53;100509.91;;;13.17;61.17
55538;BME280;41383;51.418;7.286;2023-05-20T03:54:18;100508.72;;;13.08;61.56
55538;BME280;41383;51.418;7.286;2023-05-20T03:56:44;100508.22;;;13.11;61.31
55538;BME280;41383;51.418;7.286;2023-05-20T03:59:10;100501.63;;;13.07;61.42
55538;BME280;41383;51.418;7.286;2023-05-20T04:01:36;100493.41;;;13.07;61.31
55538;BME280;41383;51.418;7.286;2023-05-20T04:04:02;100494.25;;;13.07;61.30
55538;BME280;41383;51.418;7.286;2023-05-20T04:06:27;100495.09;;;13.13;61.37
55538;BME280;41383;51.418;7.286;2023-05-20T04:08:52;100489.00;;;13.01;61.05
55538;BME280;41383;51.418;7.286;2023-05-20T04:11:18;100493.94;;;13.04;61.48
55538;BME280;41383;51.418;7.286;2023-05-20T04:13:44;100499.22;;;13.16;60.60
55538;BME280;41383;51.418;7.286;2023-05-20T04:16:09;100506.91;;;13.19;60.68
55538;BME280;41383;51.418;7.286;2023-05-20T04:18:34;100504.50;;;13.28;60.85
55538;BME280;41383;51.418;7.286;2023-05-20T04:21:03;100512.09;;;13.21;60.64
55538;BME280;41383;51.418;7.286;2023-05-20T04:23:28;100511.28;;;13.20;60.45
55538;BME280;41383;51.418;7.286;2023-05-20T04:25:53;100505.28;;;13.18;60.91
55538;BME280;41383;51.418;7.286;2023-05-20T04:28:19;100507.47;;;13.26;60.21
55538;BME280;41383;51.418;7.286;2023-05-20T04:30:48;100505.97;;;13.46;59.88
55538;BME280;41383;51.418;7.286;2023-05-20T04:33:14;100502.22;;;13.58;59.22
55538;BME280;41383;51.418;7.286;2023-05-20T04:35:40;100505.50;;;13.60;59.39
55538;BME280;41383;51.418;7.286;2023-05-20T04:38:06;100495.34;;;13.55;59.79
55538;BME280;41383;51.418;7.286;2023-05-20T04:40:32;100495.84;;;13.52;60.34
55538;BME280;41383;51.418;7.286;2023-05-20T04:43:01;100505.22;;;13.56;60.10
55538;BME280;41383;51.418;7.286;2023-05-20T04:45:26;100506.25;;;13.50;60.08
55538;BME280;41383;51.418;7.286;2023-05-20T04:47:51;100502.91;;;13.42;60.69
55538;BME280;41383;51.418;7.286;2023-05-20T04:50:17;100502.69;;;13.49;60.33
55538;BME280;41383;51.418;7.286;2023-05-20T04:52:42;100506.84;;;13.57;60.53
55538;BME280;41383;51.418;7.286;2023-05-20T04:55:10;100512.63;;;13.61;60.25
55538;BME280;41383;51.418;7.286;2023-05-20T04:57:36;100502.81;;;13.70;59.88
55538;BME280;41383;51.418;7.286;2023-05-20T05:00:07;100507.47;;;13.70;59.55
55538;BME280;41383;51.418;7.286;2023-05-20T05:02:34;100514.28;;;13.67;59.35
55538;BME280;41383;51.418;7.286;2023-05-20T05:04:59;100514.03;;;13.69;59.21
55538;BME280;41383;51.418;7.286;2023-05-20T05:07:24;100516.78;;;13.74;59.10
55538;BME280;41383;51.418;7.286;2023-05-20T05:09:49;100508.84;;;13.72;59.48
55538;BME280;41383;51.418;7.286;2023-05-20T05:12:15;100507.72;;;13.68;60.06
55538;BME280;41383;51.418;7.286;2023-05-20T05:14:40;100510.19;;;13.70;60.17
55538;BME280;41383;51.418;7.286;2023-05-20T05:17:06;100506.94;;;13.78;59.90
55538;BME280;41383;51.418;7.286;2023-05-20T05:19:31;100509.69;;;13.73;59.34
55538;BME280;41383;51.418;7.286;2023-05-20T05:21:56;100511.88;;;13.81;59.41
55538;BME280;41383;51.418;7.286;2023-05-20T05:24:21;100507.00;;;13.88;59.04
55538;BME280;41383;51.418;7.286;2023-05-20T05:26:47;100510.81;;;13.82;59.89
55538;BME280;41383;51.418;7.286;2023-05-20T05:29:12;100506.41;;;13.81;59.94
55538;BME280;41383;51.418;7.286;2023-05-20T05:31:37;100505.84;;;13.74;60.36
55538;BME280;41383;51.418;7.286;2023-05-20T05:34:02;100509.91;;;13.66;61.19
55538;BME280;41383;51.418;7.286;2023-05-20T05:36:27;100507.78;;;13.79;60.65
55538;BME280;41383;51.418;7.286;2023-05-20T05:38:53;100512.97;;;13.75;61.01
55538;BME280;41383;51.418;7.286;2023-05-20T05:41:18;100509.72;;;13.88;60.61
55538;BME280;41383;51.418;7.286;2023-05-20T05:43:43;100503.66;;;13.76;61.16
55538;BME280;41383;51.418;7.286;2023-05-20T05:46:09;100507.00;;;13.94;60.83
55538;BME280;41383;51.418;7.286;2023-05-20T05:48:35;100511.91;;;13.92;60.94
55538;BME280;41383;51.418;7.286;2023-05-20T05:51:00;100502.06;;;13.96;60.52
55538;BME280;41383;51.418;7.286;2023-05-20T05:53:25;100507.31;;;14.08;60.63
55538;BME280;41383;51.418;7.286;2023-05-20T05:55:51;100498.28;;;14.28;59.63
55538;BME280;41383;51.418;7.286;2023-05-20T05:58:16;100497.50;;;14.28;59.93
55538;BME280;41383;51.418;7.286;2023-05-20T06:00:41;100480.22;;;14.27;60.30
55538;BME280;41383;51.418;7.286;2023-05-20T06:03:07;100489.81;;;14.30;60.33
55538;BME280;41383;51.418;7.286;2023-05-20T06:05:32;100490.34;;;14.27;60.35
55538;BME280;41383;51.418;7.286;2023-05-20T06:07:57;100483.22;;;14.26;60.24
55538;BME280;41383;51.418;7.286;2023-05-20T06:10:22;100480.50;;;14.26;59.96
55538;BME280;41383;51.418;7.286;2023-05-20T06:12:48;100483.22;;;14.26;60.31
55538;BME280;41383;51.418;7.286;2023-05-20T06:15:13;100481.84;;;14.39;59.53
55538;BME280;41383;51.418;7.286;2023-05-20T06:17:38;100481.84;;;14.23;60.19
55538;BME280;41383;51.418;7.286;2023-05-20T06:20:04;100486.78;;;14.21;60.35
55538;BME280;41383;51.418;7.286;2023-05-20T06:22:29;100476.34;;;14.18;60.43
55538;BME280;41383;51.418;7.286;2023-05-20T06:24:55;100484.28;;;14.09;60.25
55538;BME280;41383;51.418;7.286;2023-05-20T06:27:24;100470.88;;;14.07;60.89
55538;BME280;41383;51.418;7.286;2023-05-20T06:29:49;100482.38;;;14.09;60.89
55538;BME280;41383;51.418;7.286;2023-05-20T06:32:14;100473.03;;;14.16;60.83
55538;BME280;41383;51.418;7.286;2023-05-20T06:34:40;100474.44;;;14.29;60.57
55538;BME280;41383;51.418;7.286;2023-05-20T06:37:05;100472.00;;;14.38;60.34
55538;BME280;41383;51.418;7.286;2023-05-20T06:39:30;100481.31;;;14.36;60.10
55538;BME280;41383;51.418;7.286;2023-05-20T06:41:55;100480.22;;;14.58;59.57
55538;BME280;41383;51.418;7.286;2023-05-20T06:44:21;100484.59;;;14.65;59.71
55538;BME280;41383;51.418;7.286;2023-05-20T06:46:46;100473.63;;;14.65;59.46
55538;BME280;41383;51.418;7.286;2023-05-20T06:49:11;100478.56;;;14.47;60.26
55538;BME280;41383;51.418;7.286;2023-05-20T06:51:36;100476.94;;;14.35;60.59
55538;BME280;41383;51.418;7.286;2023-05-20T06:54:02;100473.34;;;14.35;60.58
55538;BME280;41383;51.418;7.286;2023-05-20T06:56:27;100473.34;;;14.51;59.96
55538;BME280;41383;51.418;7.286;2023-05-20T06:58:54;100469.53;;;14.52;60.37
55538;BME280;41383;51.418;7.286;2023-05-20T07:01:19;100476.63;;;14.42;60.85
55538;BME280;41383;51.418;7.286;2023-05-20T07:03:44;100469.81;;;14.40;60.78
55538;BME280;41383;51.418;7.286;2023-05-20T07:06:10;100463.22;;;14.51;60.23
55538;BME280;41383;51.418;7.286;2023-05-20T07:08:35;100456.06;;;14.61;60.59
55538;BME280;41383;51.418;7.286;2023-05-20T07:11:00;100453.63;;;14.54;60.31
55538;BME280;41383;51.418;7.286;2023-05-20T07:13:26;100456.63;;;14.57;60.21
55538;BME280;41383;51.418;7.286;2023-05-20T07:15:51;100454.97;;;14.56;60.83
55538;BME280;41383;51.418;7.286;2023-05-20T07:18:16;100460.75;;;14.65;60.45
55538;BME280;41383;51.418;7.286;2023-05-20T07:20:43;100455.25;;;14.70;60.09
55538;BME280;41383;51.418;7.286;2023-05-20T07:23:08;100449.22;;;14.63;60.30
55538;BME280;41383;51.418;7.286;2023-05-20T07:25:33;100450.03;;;14.74;60.25
55538;BME280;41383;51.418;7.286;2023-05-20T07:27:58;100439.31;;;14.78;60.21
55538;BME280;41383;51.418;7.286;2023-05-20T07:30:24;100446.47;;;14.89;59.98
55538;BME280;41383;51.418;7.286;2023-05-20T07:32:50;100439.03;;;14.95;59.27
55538;BME280;41383;51.418;7.286;2023-05-20T07:35:15;100432.94;;;15.14;59.21
55538;BME280;41383;51.418;7.286;2023-05-20T07:37:41;100425.81;;;15.18;59.08
55538;BME280;41383;51.418;7.286;2023-05-20T07:40:06;100436.28;;;15.00;59.06
55538;BME280;41383;51.418;7.286;2023-05-20T07:42:32;100432.97;;;15.03;59.50
55538;BME280;41383;51.418;7.286;2023-05-20T07:44:57;100428.00;;;15.16;58.92
55538;BME280;41383;51.418;7.286;2023-05-20T07:47:22;100425.56;;;15.04;59.55
55538;BME280;41383;51.418;7.286;2023-05-20T07:49:48;100431.09;;;14.99;59.73
55538;BME280;41383;51.418;7.286;2023-05-20T07:52:13;100422.50;;;15.16;59.51
55538;BME280;41383;51.418;7.286;2023-05-20T07:54:38;100431.00;;;15.25;59.17
55538;BME280;41383;51.418;7.286;2023-05-20T07:57:03;100431.50;;;15.37;59.32
55538;BME280;41383;51.418;7.286;2023-05-20T07:59:29;100433.41;;;15.42;58.77
55538;BME280;41383;51.418;7.286;2023-05-20T08:01:54;100427.91;;;15.47;58.96
55538;BME280;41383;51.418;7.286;2023-05-20T08:04:20;100430.53;;;15.68;58.27
55538;BME280;41383;51.418;7.286;2023-05-20T08:06:45;100433.28;;;15.68;58.52
55538;BME280;41383;51.418;7.286;2023-05-20T08:09:11;100429.72;;;15.62;58.61
55538;BME280;41383;51.418;7.286;2023-05-20T08:11:36;100421.16;;;15.74;58.56
55538;BME280;41383;51.418;7.286;2023-05-20T08:14:01;100426.63;;;15.80;58.55
55538;BME280;41383;51.418;7.286;2023-05-20T08:16:27;100415.69;;;15.69;58.12
55538;BME280;41383;51.418;7.286;2023-05-20T08:18:52;100415.66;;;15.74;57.88
55538;BME280;41383;51.418;7.286;2023-05-20T08:21:17;100418.25;;;15.55;59.03
55538;BME280;41383;51.418;7.286;2023-05-20T08:23:43;100419.47;;;15.79;58.37
55538;BME280;41383;51.418;7.286;2023-05-20T08:26:08;100414.97;;;15.98;58.16
55538;BME280;41383;51.418;7.286;2023-05-20T08:28:34;100418.25;;;16.01;58.00
55538;BME280;41383;51.418;7.286;2023-05-20T08:31:01;100424.63;;;15.91;57.99
55538;BME280;41383;51.418;7.286;2023-05-20T08:33:27;100420.72;;;15.97;57.77
55538;BME280;41383;51.418;7.286;2023-05-20T08:35:52;100410.91;;;15.85;57.67
55538;BME280;41383;51.418;7.286;2023-05-20T08:38:18;100417.59;;;15.74;58.75
55538;BME280;41383;51.418;7.286;2023-05-20T08:40:43;100417.41;;;15.55;58.68
55538;BME280;41383;51.418;7.286;2023-05-20T08:43:08;100419.03;;;15.61;59.12
55538;BME280;41383;51.418;7.286;2023-05-20T08:45:36;100410.06;;;15.90;58.38
55538;BME280;41383;51.418;7.286;2023-05-20T08:48:02;100417.81;;;15.83;58.61
55538;BME280;41383;51.418;7.286;2023-05-20T08:50:29;100410.53;;;16.08;58.07
55538;BME280;41383;51.418;7.286;2023-05-20T08:52:55;100418.69;;;16.18;57.84
55538;BME280;41383;51.418;7.286;2023-05-20T08:55:24;100410.22;;;16.15;58.21
55538;BME280;41383;51.418;7.286;2023-05-20T08:57:51;100405.56;;;16.10;58.45
55538;BME280;41383;51.418;7.286;2023-05-20T09:00:18;100406.56;;;16.25;57.91
55538;BME280;41383;51.418;7.286;2023-05-20T09:02:44;100414.75;;;16.30;57.78
55538;BME280;41383;51.418;7.286;2023-05-20T09:05:10;100403.19;;;16.33;57.15
55538;BME280;41383;51.418;7.286;2023-05-20T09:07:36;100415.50;;;16.41;57.40
55538;BME280;41383;51.418;7.286;2023-05-20T09:10:01;100418.88;;;16.27;58.07
55538;BME280;41383;51.418;7.286;2023-05-20T09:12:27;100417.50;;;16.30;57.88
55538;BME280;41383;51.418;7.286;2023-05-20T09:14:52;100411.44;;;16.33;57.33
55538;BME280;41383;51.418;7.286;2023-05-20T09:17:17;100423.50;;;16.37;57.52
55538;BME280;41383;51.418;7.286;2023-05-20T09:19:43;100430.09;;;16.36;57.59
55538;BME280;41383;51.418;7.286;2023-05-20T09:22:08;100423.69;;;16.46;56.56
55538;BME280;41383;51.418;7.286;2023-05-20T09:24:33;100421.31;;;16.34;57.24
55538;BME280;41383;51.418;7.286;2023-05-20T09:26:59;100423.13;;;16.14;58.02
55538;BME280;41383;51.418;7.286;2023-05-20T09:29:24;100422.63;;;16.07;57.32
55538;BME280;41383;51.418;7.286;2023-05-20T09:31:50;100414.81;;;16.19;57.61
55538;BME280;41383;51.418;7.286;2023-05-20T09:34:16;100419.31;;;16.10;57.88
55538;BME280;41383;51.418;7.286;2023-05-20T09:36:43;100420.34;;;16.19;57.96
55538;BME280;41383;51.418;7.286;2023-05-20T09:39:13;100415.94;;;16.18;58.06
55538;BME280;41383;51.418;7.286;2023-05-20T09:41:48;100423.13;;;16.14;58.27
55538;BME280;41383;51.418;7.286;2023-05-20T09:44:14;100416.50;;;16.15;58.39
55538;BME280;41383;51.418;7.286;2023-05-20T09:46:40;100427.50;;;16.20;58.36
55538;BME280;41383;51.418;7.286;2023-05-20T09:49:06;100420.91;;;16.16;57.94
55538;BME280;41383;51.418;7.286;2023-05-20T09:51:32;100416.06;;;16.03;59.01
55538;BME280;41383;51.418;7.286;2023-05-20T09:53:59;100419.34;;;16.05;58.90
55538;BME280;41383;51.418;7.286;2023-05-20T09:56:28;100416.50;;;16.20;58.47
55538;BME280;41383;51.418;7.286;2023-05-20T09:58:54;100410.91;;;16.31;58.43
55538;BME280;41383;51.418;7.286;2023-05-20T10:01:22;100408.53;;;16.49;57.92
55538;BME280;41383;51.418;7.286;2023-05-20T10:03:48;100406.09;;;16.47;58.23
55538;BME280;41383;51.418;7.286;2023-05-20T10:09:13;100397.47;;;16.24;58.28
55538;BME280;41383;51.418;7.286;2023-05-20T10:12:26;100395.66;;;16.09;59.03
55538;BME280;41383;51.418;7.286;2023-05-20T10:17:20;100392.09;;;16.08;58.98
55538;BME280;41383;51.418;7.286;2023-05-20T10:19:47;100393.66;;;16.20;59.30
55538;BME280;41383;51.418;7.286;2023-05-20T10:22:14;100392.19;;;16.33;59.18
55538;BME280;41383;51.418;7.286;2023-05-20T10:24:59;100387.09;;;16.45;58.06
55538;BME280;41383;51.418;7.286;2023-05-20T10:27:25;100383.25;;;16.47;58.71
55538;BME280;41383;51.418;7.286;2023-05-20T10:29:53;100388.59;;;16.62;58.27
55538;BME280;41383;51.418;7.286;2023-05-20T10:32:29;100394.22;;;16.76;57.78
55538;BME280;41383;51.418;7.286;2023-05-20T10:35:00;100389.00;;;16.80;58.11
55538;BME280;41383;51.418;7.286;2023-05-20T10:37:27;100385.28;;;16.90;58.45
55538;BME280;41383;51.418;7.286;2023-05-20T10:40:05;100385.53;;;16.94;57.71
55538;BME280;41383;51.418;7.286;2023-05-20T10:42:31;100382.41;;;17.00;59.25
55538;BME280;41383;51.418;7.286;2023-05-20T10:44:57;100378.69;;;17.15;58.18
55538;BME280;41383;51.418;7.286;2023-05-20T10:47:22;100381.75;;;17.14;58.65
55538;BME280;41383;51.418;7.286;2023-05-20T10:49:47;100373.28;;;17.30;58.32
55538;BME280;41383;51.418;7.286;2023-05-20T10:52:13;100378.03;;;17.43;57.49
55538;BME280;41383;51.418;7.286;2023-05-20T10:54:56;100381.31;;;17.45;57.74
55538;BME280;41383;51.418;7.286;2023-05-20T10:57:22;100375.22;;;17.48;58.19
55538;BME280;41383;51.418;7.286;2023-05-20T10:59:48;100370.56;;;17.49;57.59
55538;BME280;41383;51.418;7.286;2023-05-20T11:02:15;100366.81;;;17.59;57.79
55538;BME280;41383;51.418;7.286;2023-05-20T11:04:44;100363.69;;;17.66;57.43
55538;BME280;41383;51.418;7.286;2023-05-20T11:07:09;100360.78;;;17.57;57.75
55538;BME280;41383;51.418;7.286;2023-05-20T11:09:35;100361.44;;;17.68;58.94
55538;BME280;41383;51.418;7.286;2023-05-20T11:12:00;100351.16;;;17.93;56.92
55538;BME280;41383;51.418;7.286;2023-05-20T11:14:29;100361.84;;;18.14;56.92
55538;BME280;41383;51.418;7.286;2023-05-20T11:16:56;100353.44;;;18.24;55.92
55538;BME280;41383;51.418;7.286;2023-05-20T11:19:23;100351.41;;;18.11;56.50
55538;BME280;41383;51.418;7.286;2023-05-20T11:21:48;100352.44;;;18.15;57.22
55538;BME280;41383;51.418;7.286;2023-05-20T11:24:22;100356.25;;;18.19;56.50
55538;BME280;41383;51.418;7.286;2023-05-20T11:26:47;100335.31;;;18.18;56.21
55538;BME280;41383;51.418;7.286;2023-05-20T11:29:12;100338.13;;;18.13;57.06
55538;BME280;41383;51.418;7.286;2023-05-20T11:31:38;100335.69;;;18.11;56.73
55538;BME280;41383;51.418;7.286;2023-05-20T11:34:03;100336.44;;;18.17;56.69
55538;BME280;41383;51.418;7.286;2023-05-20T11:36:28;100334.19;;;18.19;56.77
55538;BME280;41383;51.418;7.286;2023-05-20T11:38:58;100330.38;;;18.15;56.84
55538;BME280;41383;51.418;7.286;2023-05-20T11:41:25;100328.75;;;18.14;56.40
55538;BME280;41383;51.418;7.286;2023-05-20T11:43:59;100327.84;;;18.18;56.44
55538;BME280;41383;51.418;7.286;2023-05-20T11:46:25;100320.41;;;18.19;56.84
55538;BME280;41383;51.418;7.286;2023-05-20T11:48:54;100320.94;;;18.35;55.92
55538;BME280;41383;51.418;7.286;2023-05-20T11:51:23;100313.59;;;18.45;56.05
55538;BME280;41383;51.418;7.286;2023-05-20T11:53:51;100313.38;;;18.41;56.63
55538;BME280;41383;51.418;7.286;2023-05-20T11:56:16;100301.44;;;18.60;55.63
55538;BME280;41383;51.418;7.286;2023-05-20T11:58:42;100297.97;;;18.54;55.96
55538;BME280;41383;51.418;7.286;2023-05-20T12:01:08;100291.72;;;18.62;55.06
55538;BME280;41383;51.418;7.286;2023-05-20T12:03:33;100291.41;;;18.64;55.37
55538;BME280;41383;51.418;7.286;2023-05-20T12:06:00;100287.94;;;18.72;55.36
55538;BME280;41383;51.418;7.286;2023-05-20T12:08:26;100294.16;;;18.78;55.37
55538;BME280;41383;51.418;7.286;2023-05-20T12:10:51;100283.66;;;18.66;55.29
55538;BME280;41383;51.418;7.286;2023-05-20T12:13:16;100283.84;;;18.55;55.35
55538;BME280;41383;51.418;7.286;2023-05-20T12:15:43;100284.88;;;18.60;55.08
55538;BME280;41383;51.418;7.286;2023-05-20T12:18:08;100277.50;;;18.41;55.68
55538;BME280;41383;51.418;7.286;2023-05-20T12:20:34;100275.06;;;18.53;55.37
55538;BME280;41383;51.418;7.286;2023-05-20T12:23:00;100287.31;;;18.47;54.99
55538;BME280;41383;51.418;7.286;2023-05-20T12:25:26;100274.97;;;18.59;54.97
55538;BME280;41383;51.418;7.286;2023-05-20T12:27:51;100276.28;;;18.47;55.24
55538;BME280;41383;51.418;7.286;2023-05-20T12:30:18;100275.69;;;18.50;54.96
55538;BME280;41383;51.418;7.286;2023-05-20T12:32:45;100273.63;;;18.56;54.71
55538;BME280;41383;51.418;7.286;2023-05-20T12:35:11;100276.28;;;18.47;54.38
55538;BME280;41383;51.418;7.286;2023-05-20T12:37:38;100275.88;;;18.40;55.13
55538;BME280;41383;51.418;7.286;2023-05-20T12:40:04;100274.53;;;18.23;55.55
55538;BME280;41383;51.418;7.286;2023-05-20T12:42:43;100273.31;;;18.29;54.84
55538;BME280;41383;51.418;7.286;2023-05-20T12:45:08;100278.50;;;18.31;55.38
55538;BME280;41383;51.418;7.286;2023-05-20T12:47:34;100266.44;;;18.41;55.16
55538;BME280;41383;51.418;7.286;2023-05-20T12:50:00;100275.25;;;18.43;54.99